createdAt,value
2018-08-28T00:01:18.678Z,9.00
2018-08-28T00:03:46.700Z,8.07
2018-08-28T00:06:15.190Z,7.90
2018-08-28T00:08:43.579Z,6.33
2018-08-28T00:11:13.400Z,8.80
2018-08-28T00:13:41.470Z,9.03
2018-08-28T00:16:09.525Z,8.57
2018-08-28T00:18:37.588Z,8.73
2018-08-28T00:21:05.658Z,7.20
2018-08-28T00:23:33.798Z,7.93
2018-08-28T00:26:01.919Z,7.87
2018-08-28T00:28:31.053Z,6.47
2018-08-28T00:31:05.445Z,6.67
2018-08-28T00:33:33.592Z,7.40
2018-08-28T00:36:01.898Z,5.90
2018-08-28T00:38:30.272Z,5.70
2018-08-28T00:40:58.578Z,5.73
2018-08-28T00:43:26.945Z,5.97
2018-08-28T00:45:55.413Z,7.43
2018-08-28T00:48:23.492Z,6.30
2018-08-28T00:50:52.088Z,6.03
2018-08-28T00:53:25.521Z,6.03
2018-08-28T00:55:53.648Z,7.83
2018-08-28T00:58:22.249Z,8.77
2018-08-28T01:00:50.664Z,7.43
2018-08-28T01:03:18.752Z,6.77
2018-08-28T01:05:47.125Z,6.03
2018-08-28T01:08:15.285Z,6.80
2018-08-28T01:10:43.725Z,7.27
2018-08-28T01:13:12.155Z,4.47
2018-08-28T01:15:40.606Z,8.43
2018-08-28T01:18:08.766Z,6.60
2018-08-28T01:20:36.887Z,8.07
2018-08-28T01:23:04.972Z,7.00
2018-08-28T01:25:33.021Z,5.60
2018-08-28T01:28:01.132Z,6.60
2018-08-28T01:30:35.952Z,7.97
2018-08-28T01:33:05.790Z,6.97
2018-08-28T01:35:34.630Z,7.80
2018-08-28T01:38:03.023Z,7.33
2018-08-28T01:40:31.802Z,5.73
2018-08-28T01:43:00.160Z,4.60
2018-08-28T01:45:28.249Z,5.27
2018-08-28T01:47:56.285Z,5.37
2018-08-28T01:50:24.760Z,8.17
2018-08-28T01:52:52.869Z,7.73
2018-08-28T01:55:21.405Z,8.47
2018-08-28T01:57:49.451Z,7.70
2018-08-28T02:00:17.667Z,6.43
2018-08-28T02:02:45.852Z,5.63
2018-08-28T02:05:14.179Z,5.87
2018-08-28T02:07:42.772Z,5.73
2018-08-28T02:10:11.023Z,10.33
2018-08-28T02:12:39.187Z,7.53
2018-08-28T02:15:07.371Z,4.97
2018-08-28T02:17:35.447Z,7.20
2018-08-28T02:20:03.550Z,8.27
2018-08-28T02:22:31.753Z,5.17
2018-08-28T02:24:59.827Z,6.70
2018-08-28T02:27:28.192Z,6.07
2018-08-28T02:29:56.457Z,5.27
2018-08-28T02:32:24.739Z,4.87
2018-08-28T02:34:52.928Z,8.77
2018-08-28T02:37:21.180Z,8.17
2018-08-28T02:39:49.343Z,9.03
2018-08-28T02:42:17.410Z,8.43
2018-08-28T02:44:45.572Z,10.73
2018-08-28T02:47:15.138Z,5.00
2018-08-28T02:49:43.295Z,10.87
2018-08-28T02:52:11.653Z,5.13
2018-08-28T02:54:39.953Z,9.23
2018-08-28T02:57:08.619Z,6.97
2018-08-28T02:59:36.983Z,6.50
2018-08-28T03:02:05.580Z,6.53
2018-08-28T03:04:33.960Z,7.63
2018-08-28T03:07:02.425Z,5.50
2018-08-28T03:09:30.657Z,7.43
2018-08-28T03:11:58.783Z,6.00
2018-08-28T03:14:26.896Z,6.20
2018-08-28T03:16:55.147Z,6.53
2018-08-28T03:19:24.335Z,7.60
2018-08-28T03:21:52.892Z,5.07
2018-08-28T03:24:21.583Z,7.47
2018-08-28T03:26:49.900Z,6.00
2018-08-28T03:29:18.471Z,7.07
2018-08-28T03:31:46.704Z,8.60
2018-08-28T03:34:14.697Z,5.57
2018-08-28T03:36:42.820Z,6.53
2018-08-28T03:39:11.113Z,7.97
2018-08-28T03:41:39.347Z,7.23
2018-08-28T03:44:07.357Z,9.67
2018-08-28T03:46:35.553Z,7.23
2018-08-28T03:49:03.587Z,6.00
2018-08-28T03:51:31.741Z,7.30
2018-08-28T03:53:59.754Z,6.83
2018-08-28T03:56:27.757Z,6.20
2018-08-28T03:58:55.838Z,10.03
2018-08-28T04:01:23.912Z,5.97
2018-08-28T04:03:52.183Z,4.67
2018-08-28T04:06:20.398Z,6.63
2018-08-28T04:08:48.428Z,6.67
2018-08-28T04:11:17.422Z,6.20
2018-08-28T04:13:46.099Z,6.87
2018-08-28T04:16:14.112Z,7.33
2018-08-28T04:18:42.173Z,11.17
2018-08-28T04:21:10.187Z,11.07
2018-08-28T04:23:38.327Z,12.57
2018-08-28T04:26:06.382Z,9.83
2018-08-28T04:28:34.549Z,9.13
2018-08-28T04:31:02.615Z,10.23
2018-08-28T04:33:30.696Z,5.47
2018-08-28T04:35:58.678Z,8.73
2018-08-28T04:38:27.807Z,8.53
2018-08-28T04:40:55.884Z,7.53
2018-08-28T04:43:23.899Z,7.93
2018-08-28T04:45:51.916Z,9.23
2018-08-28T04:48:20.193Z,7.43
2018-08-28T04:50:48.259Z,9.57
2018-08-28T04:53:16.609Z,8.03
2018-08-28T04:55:44.716Z,6.43
2018-08-28T04:58:13.229Z,9.23
2018-08-28T05:00:41.280Z,9.27
2018-08-28T05:03:09.736Z,8.50
2018-08-28T05:05:38.266Z,8.17
2018-08-28T05:08:06.558Z,13.07
2018-08-28T05:10:34.687Z,10.40
2018-08-28T05:13:03.083Z,6.67
2018-08-28T05:15:37.741Z,7.87
2018-08-28T05:18:06.867Z,6.87
2018-08-28T05:20:35.188Z,7.50
2018-08-28T05:23:14.993Z,8.07
2018-08-28T05:25:43.198Z,8.97
2018-08-28T05:45:24.538Z,6.83
2018-08-28T05:47:52.780Z,9.17
2018-08-28T05:56:06.980Z,12.27
2018-08-28T05:58:36.352Z,11.67
2018-08-28T06:01:04.496Z,8.50
2018-08-28T06:03:33.168Z,10.13
2018-08-28T06:06:01.282Z,10.20
2018-08-28T06:08:36.123Z,9.83
2018-08-28T06:11:04.241Z,9.10
2018-08-28T06:13:33.885Z,10.23
2018-08-28T06:16:02.077Z,9.77
2018-08-28T06:18:30.414Z,9.13
2018-08-28T06:20:59.220Z,12.23
2018-08-28T06:23:27.338Z,8.80
2018-08-28T06:25:55.478Z,8.37
2018-08-28T06:28:23.723Z,10.07
2018-08-28T06:30:51.817Z,8.67
2018-08-28T06:33:20.028Z,9.37
2018-08-28T06:35:48.109Z,11.23
2018-08-28T06:38:16.099Z,11.70
2018-08-28T06:40:44.244Z,13.27
2018-08-28T06:43:12.407Z,7.80
2018-08-28T06:45:40.631Z,8.43
2018-08-28T06:48:09.759Z,9.20
2018-08-28T06:50:37.949Z,9.27
2018-08-28T06:53:06.145Z,9.57
2018-08-28T06:55:34.358Z,10.20
2018-08-28T06:58:02.311Z,10.53
2018-08-28T07:00:30.444Z,12.67
2018-08-28T07:02:58.516Z,11.20
2018-08-28T07:05:26.968Z,10.90
2018-08-28T07:07:55.152Z,11.00
2018-08-28T07:10:24.347Z,12.03
2018-08-28T07:12:52.522Z,10.73
2018-08-28T07:15:20.631Z,8.90
2018-08-28T07:17:48.791Z,12.43
2018-08-28T07:20:16.925Z,12.03
2018-08-28T07:22:45.167Z,11.43
2018-08-28T07:25:13.357Z,12.77
2018-08-28T07:27:41.540Z,11.53
2018-08-28T07:30:09.686Z,12.57
2018-08-28T07:32:37.847Z,15.03
2018-08-28T07:35:06.169Z,11.87
2018-08-28T07:37:34.352Z,11.57
2018-08-28T07:40:02.569Z,10.23
2018-08-28T07:42:30.659Z,12.80
2018-08-28T07:44:58.813Z,12.73
2018-08-28T07:47:26.938Z,11.00
2018-08-28T07:49:55.021Z,13.43
2018-08-28T07:52:23.158Z,10.97
2018-08-28T07:54:51.374Z,11.30
2018-08-28T07:57:19.546Z,13.17
2018-08-28T07:59:47.752Z,15.40
2018-08-28T08:02:15.934Z,13.77
2018-08-28T08:04:44.146Z,13.77
2018-08-28T08:07:12.444Z,10.70
2018-08-28T08:09:40.824Z,12.63
2018-08-28T08:12:08.884Z,12.33
2018-08-28T08:14:37.105Z,9.70
2018-08-28T08:17:05.289Z,10.83
2018-08-28T08:19:33.459Z,13.70
2018-08-28T08:22:01.600Z,12.83
2018-08-28T08:24:29.788Z,15.63
2018-08-28T08:26:58.147Z,12.00
2018-08-28T08:29:26.399Z,12.83
2018-08-28T08:31:54.607Z,11.87
2018-08-28T08:34:22.747Z,12.67
2018-08-28T08:36:51.052Z,13.90
2018-08-28T08:39:19.020Z,13.43
2018-08-28T08:41:47.060Z,13.60
2018-08-28T08:44:15.028Z,12.93
2018-08-28T08:46:42.978Z,11.73
2018-08-28T08:49:10.912Z,10.47
2018-08-28T08:51:38.894Z,14.23
2018-08-28T08:54:06.834Z,11.30
2018-08-28T08:56:34.997Z,12.87
2018-08-28T08:59:06.951Z,12.57
2018-08-28T09:01:34.974Z,11.83
2018-08-28T09:04:03.090Z,13.07
2018-08-28T09:06:31.193Z,11.30
2018-08-28T09:08:59.245Z,11.33
2018-08-28T09:11:27.235Z,13.93
2018-08-28T09:13:55.758Z,12.53
2018-08-28T09:16:23.697Z,10.10
2018-08-28T09:18:52.175Z,10.40
2018-08-28T09:21:20.094Z,11.37
2018-08-28T09:23:48.062Z,10.40
2018-08-28T09:26:16.076Z,11.50
2018-08-28T09:28:43.959Z,11.57
2018-08-28T09:31:11.938Z,12.17
2018-08-28T09:33:39.858Z,11.43
2018-08-28T09:36:07.950Z,9.13
2018-08-28T09:38:35.899Z,10.83
2018-08-28T09:41:03.940Z,11.57
2018-08-28T09:43:31.939Z,11.70
2018-08-28T09:45:59.920Z,10.47
2018-08-28T09:51:20.078Z,11.93
2018-08-28T09:53:53.434Z,12.37
2018-08-28T10:04:58.962Z,9.10
2018-08-28T10:33:21.166Z,7.83
2018-08-28T10:41:34.012Z,8.97
2018-08-28T11:27:29.684Z,6.93
2018-08-28T11:29:57.811Z,10.47
2018-08-28T11:32:26.259Z,8.77
2018-08-28T11:34:54.461Z,10.03
2018-08-28T11:37:22.679Z,6.77
2018-08-28T11:39:50.691Z,5.67
2018-08-28T11:42:18.833Z,9.43
2018-08-28T11:44:46.924Z,10.57
2018-08-28T11:47:15.376Z,9.30
2018-08-28T11:49:43.408Z,6.97
2018-08-28T11:52:12.502Z,7.57
2018-08-28T11:54:40.584Z,6.37
2018-08-28T11:57:08.665Z,5.73
2018-08-28T11:59:36.736Z,9.47
2018-08-28T12:02:04.931Z,7.77
2018-08-28T12:04:33.078Z,8.00
2018-08-28T12:07:01.412Z,8.00
2018-08-28T12:09:29.643Z,7.50
2018-08-28T12:11:57.788Z,7.97
2018-08-28T12:14:25.943Z,7.53
2018-08-28T12:16:54.313Z,7.37
2018-08-28T12:19:22.336Z,7.33
2018-08-28T12:21:50.816Z,5.60
2018-08-28T12:24:19.213Z,9.80
2018-08-28T12:28:00.622Z,7.30
2018-08-28T12:30:28.835Z,6.53
2018-08-28T12:32:57.021Z,7.03
2018-08-28T12:38:18.021Z,7.13
2018-08-28T12:44:12.979Z,7.50
2018-08-28T12:49:37.295Z,6.73
2018-08-28T13:01:09.226Z,7.43
2018-08-28T13:09:19.226Z,8.23
2018-08-28T13:11:47.141Z,9.13
2018-08-28T13:14:15.870Z,7.93
2018-08-28T13:16:46.774Z,7.10
2018-08-28T13:19:14.925Z,7.63
2018-08-28T13:21:42.853Z,7.87
2018-08-28T13:24:10.816Z,8.57
2018-08-28T13:26:38.980Z,7.33
2018-08-28T13:29:06.932Z,6.20
2018-08-28T13:31:39.981Z,9.13
2018-08-28T13:34:26.625Z,7.53
2018-08-28T13:36:57.018Z,7.50
2018-08-28T13:42:11.224Z,7.27
2018-08-28T13:44:39.428Z,6.93
2018-08-28T13:47:07.533Z,5.17
2018-08-28T13:49:35.619Z,6.87
2018-08-28T13:52:03.688Z,7.83
2018-08-28T13:54:40.446Z,8.03
2018-08-28T13:57:08.446Z,8.80
2018-08-28T13:59:36.314Z,6.50
2018-08-28T14:02:05.490Z,7.57
2018-08-28T14:04:46.387Z,5.73
2018-08-28T14:07:14.316Z,6.07
2018-08-28T14:09:42.373Z,7.47
2018-08-28T14:12:12.498Z,10.90
2018-08-28T14:14:40.576Z,6.33
2018-08-28T14:17:08.495Z,7.40
2018-08-28T14:19:36.498Z,6.63
2018-08-28T14:22:04.447Z,7.00
2018-08-28T14:24:32.590Z,7.60
2018-08-28T14:27:01.245Z,5.97
2018-08-28T14:32:21.894Z,8.57
2018-08-28T14:34:50.854Z,10.53
2018-08-28T14:37:18.854Z,7.07
2018-08-28T14:39:46.900Z,9.03
2018-08-28T14:42:14.884Z,8.60
2018-08-28T14:44:53.642Z,6.70
2018-08-28T14:47:22.441Z,9.13
2018-08-28T14:49:50.579Z,8.17
2018-08-28T14:52:18.552Z,8.13
2018-08-28T14:54:46.539Z,6.07
2018-08-28T14:57:15.535Z,8.70
2018-08-28T14:59:43.636Z,7.70
2018-08-28T15:02:12.770Z,8.17
2018-08-28T15:05:24.132Z,7.77
2018-08-28T15:07:52.722Z,7.90
2018-08-28T15:10:21.448Z,7.33
2018-08-28T15:15:43.054Z,8.87
2018-08-28T15:26:51.395Z,10.50
2018-08-28T15:47:52.139Z,5.90
2018-08-28T15:50:20.425Z,11.03
2018-08-28T15:56:14.370Z,9.37
2018-08-28T15:58:42.291Z,7.70
2018-08-28T16:01:10.282Z,7.80
2018-08-28T16:04:01.834Z,9.60
2018-08-28T16:06:30.670Z,8.40
2018-08-28T16:09:10.346Z,8.37
2018-08-28T16:17:45.330Z,9.10
2018-08-28T16:25:59.356Z,9.23
2018-08-28T16:28:28.061Z,11.43
2018-08-28T16:33:51.638Z,10.63
2018-08-28T16:36:32.383Z,8.43
2018-08-28T16:56:17.243Z,9.67
2018-08-28T18:56:43.984Z,8.70
2018-08-28T22:11:08.503Z,8.07
2018-08-28T22:25:12.785Z,8.50
2018-08-28T22:30:33.339Z,12.53
2018-08-28T22:39:34.055Z,7.63
2018-08-28T22:47:47.980Z,10.57
2018-08-28T22:50:16.910Z,8.43
2018-08-28T23:07:09.993Z,8.70
2018-08-28T23:15:24.354Z,9.40
2018-08-28T23:17:52.523Z,7.80
2018-08-28T23:20:20.754Z,8.67
2018-08-28T23:22:50.006Z,9.13
2018-08-28T23:25:19.035Z,8.47
2018-08-28T23:27:49.110Z,10.90
